createdAt,value
2022-08-11T00:00:15.756Z,41.23
2022-08-11T00:02:53.352Z,41.78
2022-08-11T00:05:23.468Z,41.99
2022-08-11T00:07:55.775Z,42.20
2022-08-11T00:10:27.772Z,42.60
2022-08-11T00:13:00.440Z,42.51
2022-08-11T00:15:42.379Z,42.59
2022-08-11T00:18:14.365Z,42.51
2022-08-11T00:20:46.180Z,42.64
2022-08-11T00:23:20.846Z,42.64
2022-08-11T00:25:54.331Z,42.81
2022-08-11T00:28:32.774Z,42.99
2022-08-11T00:31:10.431Z,42.92
2022-08-11T00:33:46.078Z,43.04
2022-08-11T00:36:22.002Z,43.14
2022-08-11T00:38:52.296Z,43.50
2022-08-11T00:41:59.304Z,43.18
2022-08-11T00:44:34.709Z,43.13
2022-08-11T00:47:13.423Z,43.23
2022-08-11T00:50:20.546Z,43.91
2022-08-11T00:53:26.199Z,43.94
2022-08-11T00:56:14.929Z,44.04
2022-08-11T00:58:48.282Z,44.04
2022-08-11T01:01:31.323Z,43.71
2022-08-11T01:04:23.583Z,44.19
2022-08-11T01:06:58.967Z,44.18
2022-08-11T01:09:43.515Z,44.06
2022-08-11T01:12:16.450Z,44.31
2022-08-11T01:15:01.021Z,44.74
2022-08-11T01:17:57.340Z,44.67
2022-08-11T01:20:49.398Z,44.54
2022-08-11T01:23:34.799Z,44.88
2022-08-11T01:26:37.894Z,45.27
2022-08-11T01:29:29.739Z,45.28
2022-08-11T01:32:21.987Z,45.22
2022-08-11T01:35:06.620Z,45.41
2022-08-11T01:38:12.477Z,45.67
2022-08-11T01:41:10.750Z,45.79
2022-08-11T01:44:23.628Z,46.13
2022-08-11T01:46:59.255Z,46.13
2022-08-11T01:50:08.447Z,45.90
2022-08-11T01:52:33.488Z,46.25
2022-08-11T01:55:06.701Z,46.07
2022-08-11T01:57:45.181Z,46.55
2022-08-11T02:00:20.560Z,46.52
2022-08-11T02:02:58.780Z,46.45
2022-08-11T02:05:51.817Z,46.52
2022-08-11T02:08:41.960Z,46.53
2022-08-11T02:11:30.997Z,46.54
2022-08-11T02:14:26.896Z,46.94
2022-08-11T02:17:21.888Z,47.28
2022-08-11T02:20:36.350Z,47.55
2022-08-11T02:24:06.973Z,47.55
2022-08-11T02:26:08.434Z,47.79
2022-08-11T02:29:04.585Z,47.68
2022-08-11T02:32:25.881Z,47.72
2022-08-11T02:34:39.223Z,47.89
2022-08-11T02:37:29.875Z,48.03
2022-08-11T02:40:03.143Z,47.90
2022-08-11T02:42:51.703Z,48.85
2022-08-11T02:45:46.186Z,48.85
2022-08-11T02:48:52.844Z,48.51
2022-08-11T02:51:41.481Z,48.73
2022-08-11T02:54:32.712Z,48.69
2022-08-11T02:57:14.775Z,49.06
2022-08-11T02:59:53.769Z,49.31
2022-08-11T03:02:34.913Z,49.02
2022-08-11T03:05:15.011Z,48.94
2022-08-11T03:08:04.286Z,49.09
2022-08-11T03:10:50.717Z,49.61
2022-08-11T03:13:44.154Z,49.37
2022-08-11T03:16:46.326Z,49.37
2022-08-11T03:19:28.142Z,49.47
2022-08-11T03:22:15.555Z,49.53
2022-08-11T03:24:57.001Z,49.34
2022-08-11T03:27:47.222Z,49.23
2022-08-11T03:30:22.596Z,49.91
2022-08-11T03:33:29.539Z,50.29
2022-08-11T03:36:54.525Z,50.01
2022-08-11T03:39:09.628Z,50.13
2022-08-11T03:42:04.433Z,49.52
2022-08-11T03:44:35.581Z,49.96
2022-08-11T03:47:10.969Z,49.64
2022-08-11T03:50:01.930Z,50.27
2022-08-11T03:52:52.083Z,50.46
2022-08-11T03:55:59.382Z,50.46
2022-08-11T03:58:46.834Z,49.99
2022-08-11T04:01:40.967Z,49.96
2022-08-11T04:04:32.498Z,50.91
2022-08-11T04:07:17.570Z,51.33
2022-08-11T04:10:15.132Z,51.43
2022-08-11T04:13:20.644Z,51.20
2022-08-11T04:16:12.840Z,51.33
2022-08-11T04:19:02.238Z,51.83
2022-08-11T04:21:57.011Z,51.93
2022-08-11T04:24:41.647Z,52.10
2022-08-11T04:27:20.041Z,52.40
2022-08-11T04:30:13.706Z,52.22
2022-08-11T04:33:02.462Z,52.16
2022-08-11T04:35:54.339Z,51.72
2022-08-11T04:38:27.064Z,52.77
2022-08-11T04:41:16.300Z,52.28
2022-08-11T04:44:06.866Z,52.61
2022-08-11T04:47:12.524Z,52.48
2022-08-11T04:50:14.579Z,52.93
2022-08-11T04:53:39.434Z,52.69
2022-08-11T04:56:29.663Z,53.03
2022-08-11T04:59:19.935Z,52.82
2022-08-11T05:02:26.953Z,53.41
2022-08-11T05:05:34.076Z,52.40
2022-08-11T05:08:38.431Z,53.04
2022-08-11T05:11:30.325Z,53.16
2022-08-11T05:14:23.638Z,53.09
2022-08-11T05:17:13.867Z,51.99
2022-08-11T05:22:55.335Z,52.36
2022-08-11T05:26:43.643Z,52.78
2022-08-11T05:28:49.743Z,52.54
2022-08-11T05:31:40.062Z,52.42
2022-08-11T05:34:31.551Z,52.54
2022-08-11T05:37:25.176Z,52.75
2022-08-11T05:40:06.025Z,52.11
2022-08-11T05:42:55.470Z,51.65
2022-08-11T05:46:02.329Z,51.14
2022-08-11T05:48:33.844Z,51.14
2022-08-11T05:51:29.975Z,50.50
2022-08-11T05:54:27.931Z,50.06
2022-08-11T05:56:57.756Z,49.68
2022-08-11T05:59:29.580Z,49.66
2022-08-11T06:02:04.400Z,49.81
2022-08-11T06:04:35.174Z,49.82
2022-08-11T06:07:10.499Z,49.56
2022-08-11T06:09:52.060Z,49.45
2022-08-11T06:12:31.393Z,49.42
2022-08-11T06:15:06.954Z,48.84
2022-08-11T06:17:39.454Z,49.12
2022-08-11T06:20:13.135Z,48.57
2022-08-11T06:22:52.922Z,48.71
2022-08-11T06:25:22.405Z,48.52
2022-08-11T06:27:56.283Z,48.02
2022-08-11T06:30:43.517Z,47.23
2022-08-11T06:33:22.191Z,47.16
2022-08-11T06:36:12.631Z,45.70
2022-08-11T06:39:00.403Z,45.20
2022-08-11T06:41:47.939Z,44.32
2022-08-11T06:44:20.779Z,42.75
2022-08-11T06:46:54.620Z,42.75
2022-08-11T06:49:44.878Z,43.00
2022-08-11T06:52:34.138Z,42.71
2022-08-11T06:54:57.735Z,42.29
2022-08-11T06:57:45.440Z,41.56
2022-08-11T07:00:30.055Z,40.88
2022-08-11T07:03:09.838Z,40.28
2022-08-11T07:05:48.654Z,40.28
2022-08-11T07:09:04.887Z,39.65
2022-08-11T07:11:50.899Z,39.18
2022-08-11T07:14:41.525Z,37.91
2022-08-11T07:17:14.324Z,37.91
2022-08-11T07:20:03.811Z,36.97
2022-08-11T07:22:53.973Z,36.42
2022-08-11T07:25:43.413Z,36.49
2022-08-11T07:28:35.367Z,36.24
2022-08-11T07:31:08.221Z,34.87
2022-08-11T07:34:08.109Z,34.92
2022-08-11T07:36:23.610Z,33.99
2022-08-11T07:38:56.713Z,34.45
2022-08-11T07:41:30.363Z,33.73
2022-08-11T07:44:02.914Z,33.75
2022-08-11T07:46:49.903Z,33.35
2022-08-11T07:49:37.565Z,33.46
2022-08-11T07:52:26.691Z,33.46
2022-08-11T07:54:59.602Z,31.83
2022-08-11T07:58:14.766Z,32.12
2022-08-11T08:00:40.318Z,31.88
2022-08-11T08:03:28.555Z,31.51
2022-08-11T08:06:35.916Z,30.94
2022-08-11T08:09:05.959Z,31.34
2022-08-11T08:11:53.367Z,30.89
2022-08-11T08:14:41.319Z,30.66
2022-08-11T08:17:28.799Z,30.36
2022-08-11T08:19:58.907Z,30.12
2022-08-11T08:22:38.802Z,30.31
2022-08-11T08:25:01.546Z,29.49
2022-08-11T08:27:31.444Z,29.70
2022-08-11T08:30:20.428Z,29.24
2022-08-11T08:32:51.804Z,29.91
2022-08-11T08:35:21.845Z,29.91
2022-08-11T08:37:53.383Z,29.79
2022-08-11T08:40:23.308Z,29.63
2022-08-11T08:43:02.078Z,29.42
2022-08-11T08:45:34.897Z,28.21
2022-08-11T08:48:11.202Z,29.00
2022-08-11T08:51:04.586Z,27.60
2022-08-11T08:53:36.653Z,28.40
2022-08-11T08:56:10.600Z,27.27
2022-08-11T08:58:43.205Z,26.57
2022-08-11T09:01:14.944Z,26.64
2022-08-11T09:04:06.843Z,27.48
2022-08-11T09:06:17.635Z,27.48
2022-08-11T09:08:51.841Z,27.23
2022-08-11T09:11:38.843Z,27.32
2022-08-11T09:14:15.029Z,26.77
2022-08-11T09:16:44.213Z,26.71
2022-08-11T09:19:19.410Z,26.89
2022-08-11T09:22:09.909Z,27.55
2022-08-11T09:24:58.973Z,25.89
2022-08-11T09:27:29.270Z,25.82
2022-08-11T09:29:59.950Z,25.15
2022-08-11T09:32:31.430Z,24.45
2022-08-11T09:35:04.466Z,24.08
2022-08-11T09:37:54.365Z,25.21
2022-08-11T09:40:31.237Z,24.02
2022-08-11T09:43:22.280Z,23.81
2022-08-11T09:45:55.058Z,23.31
2022-08-11T09:48:27.132Z,23.30
2022-08-11T09:50:59.774Z,23.44
2022-08-11T09:53:40.670Z,23.10
2022-08-11T09:56:30.045Z,22.62
2022-08-11T09:59:00.248Z,21.97
2022-08-11T10:01:35.415Z,22.21
2022-08-11T10:04:09.163Z,21.51
2022-08-11T10:06:58.439Z,21.54
2022-08-11T10:09:31.158Z,21.58
2022-08-11T10:12:02.949Z,21.90
2022-08-11T10:14:51.142Z,21.78
2022-08-11T10:17:22.838Z,21.94
2022-08-11T10:20:04.953Z,21.63
2022-08-11T10:22:46.556Z,21.52
2022-08-11T10:25:34.911Z,21.85
2022-08-11T10:28:33.187Z,21.13
2022-08-11T10:30:58.500Z,20.74
2022-08-11T10:33:57.700Z,20.76
2022-08-11T10:36:21.153Z,21.03
2022-08-11T10:38:52.242Z,20.80
2022-08-11T10:42:02.864Z,20.51
2022-08-11T10:44:12.502Z,20.01
2022-08-11T10:47:00.097Z,20.19
2022-08-11T10:49:31.201Z,19.67
2022-08-11T10:52:19.605Z,19.67
2022-08-11T10:55:07.698Z,19.56
2022-08-11T10:58:04.620Z,19.98
2022-08-11T11:00:28.651Z,20.26
2022-08-11T11:03:23.113Z,20.22
2022-08-11T11:05:33.660Z,20.49
2022-08-11T11:08:12.075Z,19.75
2022-08-11T11:10:42.771Z,19.96
2022-08-11T11:13:29.457Z,19.20
2022-08-11T11:16:16.489Z,18.83
2022-08-11T11:19:00.602Z,19.18
2022-08-11T11:21:22.498Z,19.58
2022-08-11T11:24:14.571Z,19.22
2022-08-11T11:26:56.254Z,18.74
2022-08-11T11:29:43.905Z,19.28
2022-08-11T11:32:33.965Z,19.28
2022-08-11T11:35:12.398Z,18.63
2022-08-11T11:38:00.026Z,18.46
2022-08-11T11:40:30.610Z,18.52
2022-08-11T11:42:58.283Z,17.59
2022-08-11T11:45:28.372Z,17.59
2022-08-11T11:48:00.837Z,18.46
2022-08-11T11:50:36.704Z,17.94
2022-08-11T11:53:08.809Z,17.89
2022-08-11T11:55:39.012Z,17.60
2022-08-11T11:58:29.264Z,17.02
2022-08-11T12:01:20.425Z,17.88
2022-08-11T12:03:52.616Z,18.19
2022-08-11T12:06:25.313Z,17.51
2022-08-11T12:08:58.049Z,17.55
2022-08-11T12:11:47.741Z,18.27
2022-08-11T12:14:20.049Z,17.76
2022-08-11T12:16:50.083Z,17.55
2022-08-11T12:19:21.930Z,17.36
2022-08-11T12:22:10.849Z,17.24
2022-08-11T12:24:58.741Z,17.38
2022-08-11T12:27:30.947Z,16.93
2022-08-11T12:30:09.845Z,16.68
2022-08-11T12:32:41.512Z,16.42
2022-08-11T12:35:11.543Z,16.48
2022-08-11T12:37:44.374Z,16.56
2022-08-11T12:40:43.373Z,16.63
2022-08-11T12:43:38.067Z,16.36
2022-08-11T12:46:01.482Z,16.25
2022-08-11T12:49:02.084Z,16.47
2022-08-11T12:52:14.013Z,15.95
2022-08-11T12:54:24.144Z,15.81
2022-08-11T12:57:17.597Z,15.59
2022-08-11T13:00:07.656Z,15.91
2022-08-11T13:02:55.902Z,16.11
2022-08-11T13:05:25.612Z,16.21
2022-08-11T13:07:55.614Z,15.15
2022-08-11T13:10:42.642Z,16.04
2022-08-11T13:13:54.579Z,15.50
2022-08-11T13:15:46.672Z,15.05
2022-08-11T13:18:20.955Z,14.75
2022-08-11T13:20:54.163Z,15.21
2022-08-11T13:23:25.506Z,15.03
2022-08-11T13:25:56.616Z,15.46
2022-08-11T13:28:26.973Z,15.46
2022-08-11T13:31:11.921Z,15.40
2022-08-11T13:33:49.524Z,15.08
2022-08-11T13:36:23.847Z,15.35
2022-08-11T13:38:58.342Z,15.17
2022-08-11T13:41:39.255Z,15.29
2022-08-11T13:44:15.932Z,15.32
2022-08-11T13:46:45.710Z,15.00
2022-08-11T13:49:17.579Z,15.32
2022-08-11T13:51:47.685Z,15.72
2022-08-11T13:54:26.502Z,15.51
2022-08-11T13:56:59.622Z,15.49
2022-08-11T13:59:31.101Z,15.54
2022-08-11T14:02:27.999Z,16.06
2022-08-11T14:04:57.041Z,16.02
2022-08-11T14:07:32.003Z,16.02
2022-08-11T14:10:02.469Z,15.62
2022-08-11T14:12:52.619Z,15.58
2022-08-11T14:15:31.444Z,15.65
2022-08-11T14:18:10.361Z,15.68
2022-08-11T14:21:00.354Z,15.25
2022-08-11T14:23:35.968Z,15.31
2022-08-11T14:26:26.071Z,15.27
2022-08-11T14:29:13.078Z,15.16
2022-08-11T14:31:48.925Z,15.16
2022-08-11T14:34:21.568Z,15.14
2022-08-11T14:36:54.477Z,15.11
2022-08-11T14:39:27.264Z,15.43
2022-08-11T14:42:23.540Z,15.35
2022-08-11T14:45:14.124Z,15.15
2022-08-11T14:47:46.678Z,15.47
2022-08-11T14:50:23.469Z,14.72
2022-08-11T14:52:59.101Z,14.25
2022-08-11T14:55:52.286Z,14.72
2022-08-11T14:58:25.471Z,14.73
2022-08-11T15:00:58.433Z,15.01
2022-08-11T15:03:30.502Z,15.15
2022-08-11T15:06:02.555Z,14.66
2022-08-11T15:08:53.646Z,14.43
2022-08-11T15:11:48.338Z,14.43
2022-08-11T15:14:20.138Z,15.02
2022-08-11T15:17:08.229Z,14.75
2022-08-11T15:19:42.255Z,14.96
2022-08-11T15:22:29.542Z,15.26
2022-08-11T15:25:00.420Z,14.97
2022-08-11T15:27:50.719Z,14.89
2022-08-11T15:30:38.120Z,14.81
2022-08-11T15:33:27.702Z,14.72
2022-08-11T15:36:16.542Z,14.82
2022-08-11T15:38:55.298Z,14.72
2022-08-11T15:41:44.054Z,15.04
2022-08-11T15:45:00.923Z,14.78
2022-08-11T15:47:06.316Z,14.46
2022-08-11T15:50:11.925Z,15.21
2022-08-11T15:52:17.177Z,15.43
2022-08-11T15:54:48.971Z,15.40
2022-08-11T15:57:39.518Z,15.33
2022-08-11T16:00:27.151Z,15.01
2022-08-11T16:03:16.921Z,15.30
2022-08-11T16:05:53.010Z,15.23
2022-08-11T16:08:32.735Z,15.04
2022-08-11T16:10:58.567Z,14.83
2022-08-11T16:13:31.704Z,14.83
2022-08-11T16:16:15.607Z,15.11
2022-08-11T16:18:57.101Z,15.09
2022-08-11T16:21:34.604Z,14.88
2022-08-11T16:24:03.908Z,14.89
2022-08-11T16:27:09.295Z,15.33
2022-08-11T16:29:11.050Z,14.78
2022-08-11T16:31:42.933Z,14.68
2022-08-11T16:34:16.273Z,14.56
2022-08-11T16:37:03.818Z,14.70
2022-08-11T16:39:33.789Z,14.70
2022-08-11T16:43:00.151Z,14.34
2022-08-11T16:45:13.397Z,14.38
2022-08-11T16:48:02.132Z,14.22
2022-08-11T16:50:18.907Z,13.94
2022-08-11T16:52:48.423Z,14.28
2022-08-11T16:55:51.954Z,14.65
2022-08-11T16:58:07.501Z,14.65
2022-08-11T17:00:40.289Z,14.14
2022-08-11T17:03:28.932Z,14.38
2022-08-11T17:06:17.274Z,14.69
2022-08-11T17:09:12.348Z,14.87
2022-08-11T17:12:11.754Z,14.72
2022-08-11T17:14:54.141Z,14.83
2022-08-11T17:17:26.950Z,14.76
2022-08-11T17:20:42.046Z,14.91
2022-08-11T17:22:50.677Z,14.66
2022-08-11T17:25:21.668Z,14.90
2022-08-11T17:27:53.369Z,14.71
2022-08-11T17:30:29.591Z,14.64
2022-08-11T17:33:15.181Z,14.48
2022-08-11T17:35:45.095Z,14.47
2022-08-11T17:38:17.370Z,14.05
2022-08-11T17:41:07.759Z,13.88
2022-08-11T17:43:56.484Z,14.02
2022-08-11T17:46:45.884Z,13.96
2022-08-11T17:49:19.422Z,13.20
2022-08-11T17:52:09.147Z,12.95
2022-08-11T17:54:58.501Z,13.00
2022-08-11T17:57:47.919Z,15.85
2022-08-11T18:00:18.734Z,15.85
2022-08-11T18:03:07.477Z,16.67
2022-08-11T18:05:38.674Z,17.50
2022-08-11T18:08:31.283Z,17.73
2022-08-11T18:12:06.570Z,18.16
2022-08-11T18:14:10.470Z,18.31
2022-08-11T18:17:00.529Z,18.75
2022-08-11T18:19:47.021Z,19.12
2022-08-11T18:22:37.207Z,19.41
2022-08-11T18:25:34.735Z,19.45
2022-08-11T18:28:28.177Z,19.90
2022-08-11T18:31:18.499Z,20.04
2022-08-11T18:34:15.015Z,20.47
2022-08-11T18:37:27.240Z,20.41
2022-08-11T18:40:24.041Z,21.03
2022-08-11T18:43:14.210Z,21.12
2022-08-11T18:46:06.325Z,21.57
2022-08-11T18:48:59.974Z,21.73
2022-08-11T18:51:47.382Z,22.67
2022-08-11T18:54:37.061Z,22.55
2022-08-11T18:57:26.795Z,22.50
2022-08-11T19:00:16.601Z,22.93
2022-08-11T19:03:06.124Z,23.30
2022-08-11T19:06:32.421Z,23.76
2022-08-11T19:08:48.527Z,24.44
2022-08-11T19:11:42.511Z,25.28
2022-08-11T19:14:31.640Z,25.73
2022-08-11T19:17:44.746Z,26.33
2022-08-11T19:20:11.880Z,27.36
2022-08-11T19:22:59.813Z,27.60
2022-08-11T19:25:50.077Z,28.16
2022-08-11T19:28:38.406Z,28.93
2022-08-11T19:31:27.991Z,28.68
2022-08-11T19:34:17.349Z,29.22
2022-08-11T19:37:05.484Z,29.00
2022-08-11T19:39:54.363Z,28.60
2022-08-11T19:42:42.164Z,29.56
2022-08-11T19:45:30.338Z,28.93
2022-08-11T19:48:33.356Z,30.42
2022-08-11T19:51:07.398Z,30.74
2022-08-11T19:53:56.492Z,30.55
2022-08-11T19:56:44.935Z,30.22
2022-08-11T19:59:32.628Z,30.35
2022-08-11T20:02:19.973Z,30.45
2022-08-11T20:05:07.910Z,30.83
2022-08-11T20:07:56.160Z,30.84
2022-08-11T20:10:46.142Z,31.25
2022-08-11T20:13:35.589Z,31.08
2022-08-11T20:16:24.729Z,30.78
2022-08-11T20:19:13.574Z,31.02
2022-08-11T20:22:05.946Z,31.61
2022-08-11T20:24:51.089Z,31.46
2022-08-11T20:27:40.132Z,31.63
2022-08-11T20:30:29.527Z,31.82
2022-08-11T20:33:17.852Z,31.65
2022-08-11T20:36:08.841Z,31.95
2022-08-11T20:38:58.057Z,32.38
2022-08-11T20:41:58.371Z,32.49
2022-08-11T20:44:38.308Z,32.23
2022-08-11T20:47:27.664Z,32.51
2022-08-11T20:50:20.475Z,32.91
2022-08-11T20:53:10.267Z,32.42
2022-08-11T20:55:58.444Z,33.25
2022-08-11T20:59:13.869Z,33.39
2022-08-11T21:01:41.132Z,33.17
2022-08-11T21:04:28.176Z,33.52
2022-08-11T21:07:23.563Z,34.03
2022-08-11T21:10:09.909Z,34.26
2022-08-11T21:12:56.500Z,33.87
2022-08-11T21:16:01.738Z,33.84
2022-08-11T21:18:37.692Z,34.25
2022-08-11T21:21:28.806Z,34.26
2022-08-11T21:24:20.227Z,34.43
2022-08-11T21:27:16.346Z,34.58
2022-08-11T21:30:01.224Z,34.48
2022-08-11T21:32:50.011Z,34.48
2022-08-11T21:35:44.958Z,34.67
2022-08-11T21:38:30.225Z,34.56
2022-08-11T21:41:18.562Z,34.74
2022-08-11T21:44:10.727Z,34.97
2022-08-11T21:46:59.446Z,35.09
2022-08-11T21:49:48.899Z,35.02
2022-08-11T21:52:36.879Z,34.97
2022-08-11T21:55:27.085Z,34.94
2022-08-11T21:58:15.878Z,35.41
2022-08-11T22:01:03.850Z,35.21
2022-08-11T22:03:51.457Z,35.22
2022-08-11T22:06:39.842Z,35.21
2022-08-11T22:09:27.573Z,35.43
2022-08-11T22:12:34.538Z,35.48
2022-08-11T22:15:04.501Z,35.31
2022-08-11T22:17:55.976Z,35.14
2022-08-11T22:20:41.692Z,35.12
2022-08-11T22:23:35.808Z,35.26
2022-08-11T22:26:19.202Z,35.30
2022-08-11T22:29:07.916Z,35.06
2022-08-11T22:31:57.486Z,35.28
2022-08-11T22:34:53.132Z,35.34
2022-08-11T22:37:36.100Z,35.21
2022-08-11T22:40:24.770Z,35.17
2022-08-11T22:43:12.524Z,35.06
2022-08-11T22:46:00.402Z,35.06
2022-08-11T22:51:57.365Z,35.47
2022-08-11T22:54:45.908Z,35.05
2022-08-11T22:57:33.993Z,35.29
2022-08-11T23:00:22.830Z,35.52
2022-08-11T23:03:12.681Z,35.51
2022-08-11T23:06:02.685Z,35.73
2022-08-11T23:08:52.238Z,35.65
2022-08-11T23:12:07.229Z,35.68
2022-08-11T23:14:33.043Z,36.21
2022-08-11T23:17:21.012Z,35.99
2022-08-11T23:20:31.067Z,36.16
2022-08-11T23:22:58.601Z,36.48
2022-08-11T23:25:47.128Z,36.23
2022-08-11T23:28:36.094Z,36.12
2022-08-11T23:31:27.627Z,36.54
2022-08-11T23:34:41.793Z,36.98
2022-08-11T23:37:09.723Z,36.95
2022-08-11T23:39:57.327Z,36.90
2022-08-11T23:42:46.305Z,37.13
2022-08-11T23:45:34.641Z,37.11
2022-08-11T23:48:23.037Z,37.40
2022-08-11T23:51:10.865Z,38.10
2022-08-11T23:54:00.398Z,37.68
2022-08-11T23:56:50.068Z,37.70
2022-08-11T23:59:37.784Z,38.03
